Time;durP1;ratioP1;P1;durP2;ratioP2;P2;SDS_P1;SDS_P2;PMS_P1;PMS_P2;Temp;Humidity;BMP_temperature;BMP_pressure;BME280_temperature;BME280_humidity;BME280_pressure;Samples;Min_cycle;Max_cycle;Signal;HPM_P1;HPM_P2
2022/09/18 00:01:44;;;;;;;;;;;;;;;;;;6259726;22;20425;-88
2022/09/18 00:04:10;;;;;;;;;;;;;;;;;;6261050;22;19968;-87
2022/09/18 00:06:37;;;;;;;;;;;;;;;;;;6286775;22;19915;-88
2022/09/18 00:09:04;;;;;;;;;;;;;;;;;;6261734;22;19964;-88
2022/09/18 00:11:30;;;;;;;;;;;;;;;;;;6288806;22;19953;-88
2022/09/18 00:13:56;;;;;;;;;;;;;;;;;;6258070;22;19954;-88
2022/09/18 00:16:22;;;;;;;;;;;;;;;;;;6261972;22;19952;-88
2022/09/18 00:18:51;;;;;;;;;;;;;;;;;;6257448;22;20330;-88
2022/09/18 00:21:17;;;;;;;;;;;;;;;;;;6288070;22;20356;-88
2022/09/18 00:23:42;;;;;;;;;;;;;;;;;;6257367;22;19930;-87
2022/09/18 00:26:08;;;;;;;;;;;;;;;;;;6258127;22;20287;-88
2022/09/18 00:28:34;;;;;;;;;;;;;;;;;;6259064;22;19919;-88
2022/09/18 00:31:00;;;;;;;;;;;;;;;;;;6286843;22;19954;-88
2022/09/18 00:33:26;;;;;;;;;;;;;;;;;;6286663;22;19923;-88
2022/09/18 00:35:52;;;;;;;;;;;;;;;;;;6282263;22;19969;-87
2022/09/18 00:38:18;;;;;;;;;;;;;;;;;;6259432;22;19961;-88
2022/09/18 00:40:44;;;;;;;;;;;;;;;;;;6257620;22;20318;-88
2022/09/18 00:43:10;;;;;;;;;;;;;;;;;;6288792;22;20306;-87
2022/09/18 00:45:36;;;;;;;;;;;;;;;;;;6285375;22;20236;-87
2022/09/18 00:48:02;;;;;;;;;;;;;;;;;;6260315;22;19919;-88
2022/09/18 00:50:28;;;;;;;;;;;;;;;;;;6261524;22;19923;-88
2022/09/18 00:52:56;;;;;;;;;;;;;;;;;;6259776;22;20384;-88
2022/09/18 00:55:22;;;;;;;;;;;;;;;;;;6260880;22;20300;-88
2022/09/18 00:57:48;;;;;;;;;;;;;;;;;;6284066;22;19969;-88
2022/09/18 01:00:14;;;;;;;;;;;;;;;;;;6259886;22;19954;-88
2022/09/18 01:02:40;;;;;;;;;;;;;;;;;;6257907;22;19914;-88
2022/09/18 01:05:06;;;;;;;;;;;;;;;;;;6260861;22;20410;-88
2022/09/18 01:07:32;;;;;;;;;;;;;;;;;;6259833;22;19915;-87
2022/09/18 01:10:01;;;;;;;;;;;;;;;;;;6288776;22;19961;-88
2022/09/18 01:12:29;;;;;;;;;;;;;;;;;;6287339;22;19923;-88
2022/09/18 01:14:55;;;;;;;;;;;;;;;;;;6286247;22;19961;-88
2022/09/18 01:17:21;;;;;;;;;;;;;;;;;;6263497;22;19962;-88
2022/09/18 01:19:47;;;;;;;;;;;;;;;;;;6259246;22;19918;-88
2022/09/18 01:22:13;;;;;;;;;;;;;;;;;;6291343;22;19915;-87
2022/09/18 01:24:39;;;;;;;;;;;;;;;;;;6263669;22;19919;-88
2022/09/18 01:27:05;;;;;;;;;;;;;;;;;;6291372;22;19926;-88
2022/09/18 01:29:31;;;;;;;;;;;;;;;;;;6266719;22;20013;-87
2022/09/18 01:31:57;;;;;;;;;;;;;;;;;;6289592;22;19919;-88
2022/09/18 01:34:23;;;;;;;;;;;;;;;;;;6265075;22;19919;-87
2022/09/18 01:36:49;;;;;;;;;;;;;;;;;;6263231;22;19923;-87
2022/09/18 01:39:15;;;;;;;;;;;;;;;;;;6260129;22;19932;-87
2022/09/18 01:41:41;;;;;;;;;;;;;;;;;;6261532;22;19966;-87
2022/09/18 01:44:07;;;;;;;;;;;;;;;;;;6265448;22;19923;-88
2022/09/18 01:46:36;;;;;;;;;;;;;;;;;;6291268;22;20246;-88
2022/09/18 01:49:02;;;;;;;;;;;;;;;;;;6292510;22;19953;-87
2022/09/18 01:51:28;;;;;;;;;;;;;;;;;;6265782;22;19919;-87
2022/09/18 01:53:54;;;;;;;;;;;;;;;;;;6269368;22;20192;-88
2022/09/18 01:56:20;;;;;;;;;;;;;;;;;;6294919;22;19922;-88
2022/09/18 01:58:45;;;;;;;;;;;;;;;;;;6290335;22;19922;-88
2022/09/18 02:01:11;;;;;;;;;;;;;;;;;;6292510;22;19919;-88
2022/09/18 02:03:37;;;;;;;;;;;;;;;;;;6263065;22;19926;-88
2022/09/18 02:06:04;;;;;;;;;;;;;;;;;;6269266;22;20316;-88
2022/09/18 02:08:30;;;;;;;;;;;;;;;;;;6295397;22;19926;-88
2022/09/18 02:10:56;;;;;;;;;;;;;;;;;;6291773;22;20705;-88
2022/09/18 02:13:22;;;;;;;;;;;;;;;;;;6293529;22;19918;-89
2022/09/18 02:15:48;;;;;;;;;;;;;;;;;;6264434;22;19918;-88
2022/09/18 02:18:15;;;;;;;;;;;;;;;;;;6294256;22;19918;-88
2022/09/18 02:20:41;;;;;;;;;;;;;;;;;;6289102;22;20246;-86
2022/09/18 02:23:07;;;;;;;;;;;;;;;;;;6267635;22;19945;-87
2022/09/18 02:25:36;;;;;;;;;;;;;;;;;;6268570;22;19942;-87
2022/09/18 02:28:02;;;;;;;;;;;;;;;;;;6267031;22;19918;-87
2022/09/18 02:30:27;;;;;;;;;;;;;;;;;;6293250;22;19915;-88
2022/09/18 02:32:54;;;;;;;;;;;;;;;;;;6262526;22;20472;-88
2022/09/18 02:35:20;;;;;;;;;;;;;;;;;;6269038;22;20344;-88
2022/09/18 02:37:46;;;;;;;;;;;;;;;;;;6292262;22;20416;-87
2022/09/18 02:40:11;;;;;;;;;;;;;;;;;;6294375;22;19918;-87
2022/09/18 02:42:37;;;;;;;;;;;;;;;;;;6265152;22;20254;-87
2022/09/18 02:45:04;;;;;;;;;;;;;;;;;;6268382;22;19918;-87
2022/09/18 02:47:30;;;;;;;;;;;;;;;;;;6268455;22;20323;-87
2022/09/18 02:49:56;;;;;;;;;;;;;;;;;;6294340;22;20048;-88
2022/09/18 02:52:22;;;;;;;;;;;;;;;;;;6270704;22;19923;-88
2022/09/18 02:54:48;;;;;;;;;;;;;;;;;;6293020;22;20672;-87
2022/09/18 02:57:14;;;;;;;;;;;;;;;;;;6296251;22;20290;-87
2022/09/18 02:59:40;;;;;;;;;;;;;;;;;;6292404;22;19915;-88
2022/09/18 03:02:06;;;;;;;;;;;;;;;;;;6295284;22;19915;-88
2022/09/18 03:04:32;;;;;;;;;;;;;;;;;;6270113;22;19919;-87
2022/09/18 03:06:58;;;;;;;;;;;;;;;;;;6292905;22;20358;-88
2022/09/18 03:09:24;;;;;;;;;;;;;;;;;;6270824;22;19922;-88
2022/09/18 03:11:50;;;;;;;;;;;;;;;;;;6293361;22;19967;-87
2022/09/18 03:14:16;;;;;;;;;;;;;;;;;;6272140;22;20362;-87
2022/09/18 03:16:42;;;;;;;;;;;;;;;;;;6291086;22;19997;-87
2022/09/18 03:19:08;;;;;;;;;;;;;;;;;;6297105;22;19918;-87
2022/09/18 03:21:34;;;;;;;;;;;;;;;;;;6298450;22;19925;-88
2022/09/18 03:23:59;;;;;;;;;;;;;;;;;;6296630;22;19985;-88
2022/09/18 03:26:25;;;;;;;;;;;;;;;;;;6269886;22;19925;-88
2022/09/18 03:28:51;;;;;;;;;;;;;;;;;;6319890;22;19918;-88
2022/09/18 03:31:17;;;;;;;;;;;;;;;;;;6269004;22;20009;-88
2022/09/18 03:33:43;;;;;;;;;;;;;;;;;;6292172;22;19914;-87
2022/09/18 03:36:09;;;;;;;;;;;;;;;;;;6294733;22;19953;-87
2022/09/18 03:38:36;;;;;;;;;;;;;;;;;;6268744;22;20335;-87
2022/09/18 03:41:02;;;;;;;;;;;;;;;;;;6268057;22;19976;-88
2022/09/18 03:43:28;;;;;;;;;;;;;;;;;;6268047;22;19919;-88
2022/09/18 03:45:54;;;;;;;;;;;;;;;;;;6293394;22;19925;-88
2022/09/18 03:48:20;;;;;;;;;;;;;;;;;;6294723;22;20322;-87
2022/09/18 03:50:46;;;;;;;;;;;;;;;;;;6268922;22;20007;-87
2022/09/18 03:53:12;;;;;;;;;;;;;;;;;;6273669;22;20350;-86
2022/09/18 03:55:38;;;;;;;;;;;;;;;;;;6294804;22;20293;-88
2022/09/18 03:58:04;;;;;;;;;;;;;;;;;;6273294;22;19997;-87
2022/09/18 04:00:30;;;;;;;;;;;;;;;;;;6271489;22;19953;-88
2022/09/18 04:02:56;;;;;;;;;;;;;;;;;;6266958;22;19918;-87
2022/09/18 04:05:22;;;;;;;;;;;;;;;;;;6295005;22;19983;-87
2022/09/18 04:07:48;;;;;;;;;;;;;;;;;;6295583;22;19953;-88
2022/09/18 04:10:14;;;;;;;;;;;;;;;;;;6271377;22;20258;-88
2022/09/18 04:12:40;;;;;;;;;;;;;;;;;;6294295;22;19975;-88
2022/09/18 04:15:06;;;;;;;;;;;;;;;;;;6271070;22;19926;-87
2022/09/18 04:17:32;;;;;;;;;;;;;;;;;;6297661;22;19962;-87
2022/09/18 04:19:58;;;;;;;;;;;;;;;;;;6295729;22;19915;-88
2022/09/18 04:22:24;;;;;;;;;;;;;;;;;;6297245;22;19919;-87
2022/09/18 04:24:49;;;;;;;;;;;;;;;;;;6269968;22;19919;-87
2022/09/18 04:27:18;;;;;;;;;;;;;;;;;;6298366;22;19971;-88
2022/09/18 04:29:44;;;;;;;;;;;;;;;;;;6294985;22;19919;-88
2022/09/18 04:32:10;;;;;;;;;;;;;;;;;;6270550;22;20004;-88
2022/09/18 04:34:39;;;;;;;;;;;;;;;;;;6294289;22;19972;-88
2022/09/18 04:37:05;;;;;;;;;;;;;;;;;;6295361;22;20327;-88
2022/09/18 04:39:31;;;;;;;;;;;;;;;;;;6299513;22;19922;-88
2022/09/18 04:41:58;;;;;;;;;;;;;;;;;;6268478;22;19990;-87
2022/09/18 04:44:24;;;;;;;;;;;;;;;;;;6271870;22;20015;-88
2022/09/18 04:46:50;;;;;;;;;;;;;;;;;;6268297;22;19922;-88
2022/09/18 04:49:17;;;;;;;;;;;;;;;;;;6270639;22;19919;-89
2022/09/18 04:51:43;;;;;;;;;;;;;;;;;;6294260;22;19919;-88
2022/09/18 04:54:09;;;;;;;;;;;;;;;;;;6299215;22;20239;-88
2022/09/18 04:56:35;;;;;;;;;;;;;;;;;;6295161;22;20341;-87
2022/09/18 04:59:01;;;;;;;;;;;;;;;;;;6271178;22;19919;-88
2022/09/18 05:01:27;;;;;;;;;;;;;;;;;;6294042;22;19946;-88
2022/09/18 05:03:53;;;;;;;;;;;;;;;;;;6293101;22;20278;-87
2022/09/18 05:06:19;;;;;;;;;;;;;;;;;;6296752;22;19926;-88
2022/09/18 05:08:45;;;;;;;;;;;;;;;;;;6294348;22;20469;-88
2022/09/18 05:11:11;;;;;;;;;;;;;;;;;;6271107;22;19938;-88
2022/09/18 05:13:38;;;;;;;;;;;;;;;;;;6268953;22;19922;-88
2022/09/18 05:16:05;;;;;;;;;;;;;;;;;;6269696;22;19921;-87
2022/09/18 05:18:31;;;;;;;;;;;;;;;;;;6297136;22;20269;-88
2022/09/18 05:20:57;;;;;;;;;;;;;;;;;;6267664;22;19957;-88
2022/09/18 05:23:23;;;;;;;;;;;;;;;;;;6271189;22;19922;-88
2022/09/18 05:25:48;;;;;;;;;;;;;;;;;;6295475;22;19925;-88
2022/09/18 05:28:17;;;;;;;;;;;;;;;;;;6269794;22;20414;-88
2022/09/18 05:30:44;;;;;;;;;;;;;;;;;;6292680;22;19918;-87
2022/09/18 05:33:10;;;;;;;;;;;;;;;;;;6296579;22;19918;-87
2022/09/18 05:35:36;;;;;;;;;;;;;;;;;;6268214;22;20232;-87
2022/09/18 05:38:02;;;;;;;;;;;;;;;;;;6295700;22;19929;-87
2022/09/18 05:40:29;;;;;;;;;;;;;;;;;;6293748;22;19915;-89
2022/09/18 05:42:55;;;;;;;;;;;;;;;;;;6289937;22;19919;-87
2022/09/18 05:45:21;;;;;;;;;;;;;;;;;;6293779;22;20315;-87
2022/09/18 05:47:47;;;;;;;;;;;;;;;;;;6265903;22;19919;-88
2022/09/18 05:50:13;;;;;;;;;;;;;;;;;;6269817;22;19918;-88
2022/09/18 05:52:39;;;;;;;;;;;;;;;;;;6294287;22;19926;-88
2022/09/18 05:55:05;;;;;;;;;;;;;;;;;;6268114;22;19926;-88
2022/09/18 05:57:31;;;;;;;;;;;;;;;;;;6296241;22;19922;-88
2022/09/18 05:59:57;;;;;;;;;;;;;;;;;;6290465;22;19923;-87
2022/09/18 06:02:23;;;;;;;;;;;;;;;;;;6291673;22;19915;-87
2022/09/18 06:04:49;;;;;;;;;;;;;;;;;;6292374;22;19918;-88
2022/09/18 06:07:16;;;;;;;;;;;;;;;;;;6298071;22;19920;-88
2022/09/18 06:09:42;;;;;;;;;;;;;;;;;;6290984;22;19918;-88
2022/09/18 06:12:08;;;;;;;;;;;;;;;;;;6291998;22;19993;-88
2022/09/18 06:14:34;;;;;;;;;;;;;;;;;;6265993;22;19918;-88
2022/09/18 06:17:00;;;;;;;;;;;;;;;;;;6294528;22;19931;-88
2022/09/18 06:19:26;;;;;;;;;;;;;;;;;;6295412;22;19914;-88
2022/09/18 06:21:52;;;;;;;;;;;;;;;;;;6289608;22;20640;-87
2022/09/18 06:24:18;;;;;;;;;;;;;;;;;;6289472;22;19918;-87
2022/09/18 06:26:43;;;;;;;;;;;;;;;;;;6286917;22;19954;-88
2022/09/18 06:29:09;;;;;;;;;;;;;;;;;;6268753;22;19914;-88
2022/09/18 06:31:35;;;;;;;;;;;;;;;;;;6268092;22;20336;-87
2022/09/18 06:34:01;;;;;;;;;;;;;;;;;;6292718;22;19954;-88
2022/09/18 06:36:27;;;;;;;;;;;;;;;;;;6267796;22;19929;-87
2022/09/18 06:38:53;;;;;;;;;;;;;;;;;;6293110;22;20746;-88
2022/09/18 06:41:19;;;;;;;;;;;;;;;;;;6293560;22;20289;-87
2022/09/18 06:43:49;;;;;;;;;;;;;;;;;;6265459;22;19951;-88
2022/09/18 06:46:14;;;;;;;;;;;;;;;;;;6269871;22;20036;-87
2022/09/18 06:48:40;;;;;;;;;;;;;;;;;;6290033;22;19954;-87
2022/09/18 06:51:08;;;;;;;;;;;;;;;;;;6269766;22;19922;-88
2022/09/18 06:53:34;;;;;;;;;;;;;;;;;;6269470;22;19927;-87
2022/09/18 06:56:02;;;;;;;;;;;;;;;;;;6272840;22;19968;-88
2022/09/18 06:58:28;;;;;;;;;;;;;;;;;;6269089;22;19926;-87
2022/09/18 07:00:54;;;;;;;;;;;;;;;;;;6291870;22;20065;-87
2022/09/18 07:03:20;;;;;;;;;;;;;;;;;;6293856;22;19966;-87
2022/09/18 07:05:45;;;;;;;;;;;;;;;;;;6263959;22;19975;-89
2022/09/18 07:08:11;;;;;;;;;;;;;;;;;;6270194;22;20399;-88
2022/09/18 07:10:37;;;;;;;;;;;;;;;;;;6291309;22;20292;-88
2022/09/18 07:13:03;;;;;;;;;;;;;;;;;;6292329;22;20285;-87
2022/09/18 07:15:29;;;;;;;;;;;;;;;;;;6292789;22;19926;-88
2022/09/18 07:17:55;;;;;;;;;;;;;;;;;;6292290;22;20414;-87
2022/09/18 07:20:21;;;;;;;;;;;;;;;;;;6266468;22;19989;-88
2022/09/18 07:22:47;;;;;;;;;;;;;;;;;;6289467;22;19922;-87
2022/09/18 07:25:13;;;;;;;;;;;;;;;;;;6265850;22;20233;-87
2022/09/18 07:27:39;;;;;;;;;;;;;;;;;;6291063;22;19919;-87
2022/09/18 07:30:05;;;;;;;;;;;;;;;;;;6268971;22;19954;-88
2022/09/18 07:32:31;;;;;;;;;;;;;;;;;;6292925;22;19919;-88
2022/09/18 07:34:57;;;;;;;;;;;;;;;;;;6262994;22;20352;-88
2022/09/18 07:37:23;;;;;;;;;;;;;;;;;;6292331;22;20255;-88
2022/09/18 07:39:49;;;;;;;;;;;;;;;;;;6287130;22;19950;-88
2022/09/18 07:42:15;;;;;;;;;;;;;;;;;;6265408;22;19933;-88
2022/09/18 07:44:41;;;;;;;;;;;;;;;;;;6288844;22;19918;-88
2022/09/18 07:47:07;;;;;;;;;;;;;;;;;;6292074;22;19946;-88
2022/09/18 07:49:33;;;;;;;;;;;;;;;;;;6266279;22;19999;-87
2022/09/18 07:52:00;;;;;;;;;;;;;;;;;;6289700;22;20382;-87
2022/09/18 07:54:26;;;;;;;;;;;;;;;;;;6290135;22;19950;-87
2022/09/18 07:56:52;;;;;;;;;;;;;;;;;;6267225;22;20003;-87
2022/09/18 07:59:18;;;;;;;;;;;;;;;;;;6297112;22;19918;-87
2022/09/18 08:01:44;;;;;;;;;;;;;;;;;;6320630;22;19918;-91
2022/09/18 08:04:10;;;;;;;;;;;;;;;;;;6296334;22;19918;-89
2022/09/18 08:06:36;;;;;;;;;;;;;;;;;;6265023;22;20105;-89
2022/09/18 08:09:02;;;;;;;;;;;;;;;;;;6271003;22;20339;-88
2022/09/18 08:11:28;;;;;;;;;;;;;;;;;;6270114;22;19919;-88
2022/09/18 08:13:54;;;;;;;;;;;;;;;;;;6268657;22;20270;-89
2022/09/18 08:16:20;;;;;;;;;;;;;;;;;;6269408;22;19915;-87
2022/09/18 08:18:46;;;;;;;;;;;;;;;;;;6268454;22;19954;-88
2022/09/18 08:21:12;;;;;;;;;;;;;;;;;;6297569;22;19919;-88
2022/09/18 08:23:38;;;;;;;;;;;;;;;;;;6293022;22;19918;-89
2022/09/18 08:26:04;;;;;;;;;;;;;;;;;;6271998;22;19963;-88
2022/09/18 08:28:30;;;;;;;;;;;;;;;;;;6268745;22;19919;-88
2022/09/18 08:31:02;;;;;;;;;;;;;;;;;;6269730;22;20384;-91
2022/09/18 08:33:37;;;;;;;;;;;;;;;;;;6270032;22;19918;-94
2022/09/18 08:36:03;;;;;;;;;;;;;;;;;;6298272;22;20324;-89
2022/09/18 08:38:38;;;;;;;;;;;;;;;;;;6273143;22;20026;-94
2022/09/18 08:41:07;;;;;;;;;;;;;;;;;;6271904;22;20326;-90
2022/09/18 08:43:38;;;;;;;;;;;;;;;;;;6270290;22;19993;-91
2022/09/18 08:46:04;;;;;;;;;;;;;;;;;;6271197;22;19919;-91
2022/09/18 08:48:30;;;;;;;;;;;;;;;;;;6296152;22;19918;-90
2022/09/18 08:50:56;;;;;;;;;;;;;;;;;;6295275;22;20258;-88
2022/09/18 08:53:22;;;;;;;;;;;;;;;;;;6271684;22;19922;-87
2022/09/18 08:55:49;;;;;;;;;;;;;;;;;;6269739;22;19993;-88
2022/09/18 08:58:15;;;;;;;;;;;;;;;;;;6299737;22;20299;-87
2022/09/18 09:00:41;;;;;;;;;;;;;;;;;;6298838;22;19942;-88
2022/09/18 09:03:07;;;;;;;;;;;;;;;;;;6275363;22;19919;-87
2022/09/18 09:05:36;;;;;;;;;;;;;;;;;;6272703;22;19919;-88
2022/09/18 09:08:02;;;;;;;;;;;;;;;;;;6297422;22;19918;-88
2022/09/18 09:10:28;;;;;;;;;;;;;;;;;;6295412;22;19963;-87
2022/09/18 09:12:57;;;;;;;;;;;;;;;;;;6294018;22;20249;-89
2022/09/18 09:15:22;;;;;;;;;;;;;;;;;;6269039;22;19918;-88
2022/09/18 09:17:48;;;;;;;;;;;;;;;;;;6268471;22;19930;-89
2022/09/18 09:20:14;;;;;;;;;;;;;;;;;;6321770;22;19918;-88
2022/09/18 09:22:40;;;;;;;;;;;;;;;;;;6269158;22;20370;-88
2022/09/18 09:25:06;;;;;;;;;;;;;;;;;;6264563;22;19998;-87
2022/09/18 09:27:32;;;;;;;;;;;;;;;;;;6267465;22;19922;-87
2022/09/18 09:29:58;;;;;;;;;;;;;;;;;;6293084;22;19918;-87
2022/09/18 09:32:24;;;;;;;;;;;;;;;;;;6269162;22;19950;-88
2022/09/18 09:34:50;;;;;;;;;;;;;;;;;;6267659;22;19919;-87
2022/09/18 09:37:16;;;;;;;;;;;;;;;;;;6271272;22;19922;-88
2022/09/18 09:39:42;;;;;;;;;;;;;;;;;;6272370;22;19926;-88
2022/09/18 09:42:08;;;;;;;;;;;;;;;;;;6269615;22;19918;-88
2022/09/18 09:44:35;;;;;;;;;;;;;;;;;;6290508;22;19970;-88
2022/09/18 09:47:01;;;;;;;;;;;;;;;;;;6265734;22;19918;-87
2022/09/18 09:49:27;;;;;;;;;;;;;;;;;;6293650;22;19950;-88
2022/09/18 09:51:53;;;;;;;;;;;;;;;;;;6293987;22;20184;-89
2022/09/18 09:54:19;;;;;;;;;;;;;;;;;;6271784;22;19918;-88
2022/09/18 09:56:45;;;;;;;;;;;;;;;;;;6268743;22;19987;-87
2022/09/18 09:59:11;;;;;;;;;;;;;;;;;;6296680;22;19918;-88
2022/09/18 10:01:37;;;;;;;;;;;;;;;;;;6270375;22;19950;-87
2022/09/18 10:04:03;;;;;;;;;;;;;;;;;;6271526;22;19922;-88
2022/09/18 10:06:29;;;;;;;;;;;;;;;;;;6270457;22;19919;-88
2022/09/18 10:08:55;;;;;;;;;;;;;;;;;;6294389;22;19919;-88
2022/09/18 10:11:21;;;;;;;;;;;;;;;;;;6271529;22;19919;-88
2022/09/18 10:13:47;;;;;;;;;;;;;;;;;;6270526;22;19954;-88
2022/09/18 10:16:13;;;;;;;;;;;;;;;;;;6277912;22;19919;-87
2022/09/18 10:18:39;;;;;;;;;;;;;;;;;;6269212;22;19919;-87
2022/09/18 10:21:05;;;;;;;;;;;;;;;;;;6270218;22;20142;-88
2022/09/18 10:23:31;;;;;;;;;;;;;;;;;;6272235;22;20331;-88
2022/09/18 10:25:57;;;;;;;;;;;;;;;;;;6269898;22;20447;-88
2022/09/18 10:28:24;;;;;;;;;;;;;;;;;;6296431;22;19918;-88
2022/09/18 10:30:50;;;;;;;;;;;;;;;;;;6266344;22;20357;-88
2022/09/18 10:33:16;;;;;;;;;;;;;;;;;;6298721;22;19994;-88
2022/09/18 10:35:42;;;;;;;;;;;;;;;;;;6272700;22;19954;-88
2022/09/18 10:38:10;;;;;;;;;;;;;;;;;;6273160;22;19929;-88
2022/09/18 10:40:38;;;;;;;;;;;;;;;;;;6272698;22;20259;-88
2022/09/18 10:43:04;;;;;;;;;;;;;;;;;;6270668;22;20286;-88
2022/09/18 10:45:30;;;;;;;;;;;;;;;;;;6265974;22;19964;-88
2022/09/18 10:47:56;;;;;;;;;;;;;;;;;;6288762;22;20110;-88
2022/09/18 10:50:22;;;;;;;;;;;;;;;;;;6295497;22;19914;-87
2022/09/18 10:52:48;;;;;;;;;;;;;;;;;;6291858;22;20351;-88
2022/09/18 10:55:14;;;;;;;;;;;;;;;;;;6270801;22;19961;-88
2022/09/18 10:57:42;;;;;;;;;;;;;;;;;;6265717;22;19923;-88
2022/09/18 11:00:08;;;;;;;;;;;;;;;;;;6267891;22;20224;-88
2022/09/18 11:02:34;;;;;;;;;;;;;;;;;;6294240;22;19983;-88
2022/09/18 11:05:00;;;;;;;;;;;;;;;;;;6265299;22;19980;-88
2022/09/18 11:07:26;;;;;;;;;;;;;;;;;;6270107;22;19924;-88
2022/09/18 11:09:52;;;;;;;;;;;;;;;;;;6267398;22;19918;-88
2022/09/18 11:12:18;;;;;;;;;;;;;;;;;;6268608;22;19919;-89
2022/09/18 11:14:45;;;;;;;;;;;;;;;;;;6289791;22;19972;-88
2022/09/18 11:17:11;;;;;;;;;;;;;;;;;;6269615;22;20480;-88
2022/09/18 11:19:37;;;;;;;;;;;;;;;;;;6293442;22;19918;-88
2022/09/18 11:22:04;;;;;;;;;;;;;;;;;;6296580;22;19914;-88
2022/09/18 11:24:31;;;;;;;;;;;;;;;;;;6272766;22;19918;-88
2022/09/18 11:26:57;;;;;;;;;;;;;;;;;;6293954;22;19985;-88
2022/09/18 11:29:23;;;;;;;;;;;;;;;;;;6297889;22;20000;-88
2022/09/18 11:31:49;;;;;;;;;;;;;;;;;;6291832;22;20217;-89
2022/09/18 11:34:15;;;;;;;;;;;;;;;;;;6268395;22;19968;-88
2022/09/18 11:36:41;;;;;;;;;;;;;;;;;;6269102;22;19918;-88
2022/09/18 11:39:07;;;;;;;;;;;;;;;;;;6296534;22;19983;-89
2022/09/18 11:41:36;;;;;;;;;;;;;;;;;;6293941;22;19925;-88
2022/09/18 11:44:02;;;;;;;;;;;;;;;;;;6295492;22;20387;-89
2022/09/18 11:46:28;;;;;;;;;;;;;;;;;;6294040;22;19940;-88
2022/09/18 11:48:55;;;;;;;;;;;;;;;;;;6268079;22;20294;-88
2022/09/18 11:51:25;;;;;;;;;;;;;;;;;;6269668;22;19926;-88
2022/09/18 11:53:54;;;;;;;;;;;;;;;;;;6290435;22;19921;-89
2022/09/18 11:56:20;;;;;;;;;;;;;;;;;;6271156;22;19989;-89
2022/09/18 11:58:46;;;;;;;;;;;;;;;;;;6293037;22;20343;-88
2022/09/18 12:01:12;;;;;;;;;;;;;;;;;;6275097;22;20319;-88
2022/09/18 12:03:37;;;;;;;;;;;;;;;;;;6298258;22;20254;-88
2022/09/18 12:06:03;;;;;;;;;;;;;;;;;;6298338;22;19918;-88
2022/09/18 12:08:29;;;;;;;;;;;;;;;;;;6297874;22;20030;-88
2022/09/18 12:10:55;;;;;;;;;;;;;;;;;;6269796;22;19919;-88
2022/09/18 12:13:22;;;;;;;;;;;;;;;;;;6299161;22;19925;-88
2022/09/18 12:15:48;;;;;;;;;;;;;;;;;;6293116;22;20289;-89
2022/09/18 12:18:13;;;;;;;;;;;;;;;;;;6271387;22;19926;-89
2022/09/18 12:20:40;;;;;;;;;;;;;;;;;;6295552;22;19989;-88
2022/09/18 12:23:06;;;;;;;;;;;;;;;;;;6272063;22;19926;-88
2022/09/18 12:25:32;;;;;;;;;;;;;;;;;;6271174;22;19915;-89
2022/09/18 12:27:58;;;;;;;;;;;;;;;;;;6269335;22;20251;-88
2022/09/18 12:30:24;;;;;;;;;;;;;;;;;;6266412;22;19926;-88
2022/09/18 12:32:50;;;;;;;;;;;;;;;;;;6292331;22;20637;-89
2022/09/18 12:35:16;;;;;;;;;;;;;;;;;;6266937;22;19981;-89
2022/09/18 12:37:43;;;;;;;;;;;;;;;;;;6267022;22;19958;-88
2022/09/18 12:40:10;;;;;;;;;;;;;;;;;;6296495;22;20213;-88
2022/09/18 12:42:38;;;;;;;;;;;;;;;;;;6293318;22;19922;-88
2022/09/18 12:45:03;;;;;;;;;;;;;;;;;;6262347;22;20340;-89
2022/09/18 12:47:29;;;;;;;;;;;;;;;;;;6271154;22;19925;-88
2022/09/18 12:49:55;;;;;;;;;;;;;;;;;;6260048;22;19925;-90
2022/09/18 12:52:21;;;;;;;;;;;;;;;;;;6268294;22;20290;-89
2022/09/18 12:54:47;;;;;;;;;;;;;;;;;;6264840;22;20291;-89
2022/09/18 12:57:13;;;;;;;;;;;;;;;;;;6268611;22;19965;-89
2022/09/18 13:02:23;;;;;;;;;;;;;;;;;;6288652;22;20430;-87
2022/09/18 13:04:49;;;;;;;;;;;;;;;;;;6262229;22;19934;-87
2022/09/18 13:07:30;;;;;;;;;;;;;;;;;;6266379;22;19922;-87
2022/09/18 13:10:11;;;;;;;;;;;;;;;;;;6271061;22;20250;-87
2022/09/18 13:12:39;;;;;;;;;;;;;;;;;;6265556;22;19918;-87
2022/09/18 13:15:19;;;;;;;;;;;;;;;;;;6268503;22;19914;-87
2022/09/18 13:17:45;;;;;;;;;;;;;;;;;;6264533;22;20251;-86
2022/09/18 13:20:17;;;;;;;;;;;;;;;;;;6300211;22;19915;-86
2022/09/18 13:44:36;;;;;;;;;;;;;;;;;;6293462;22;19919;-82
2022/09/18 13:47:04;;;;;;;;;;;;;;;;;;6265295;22;20017;-82
2022/09/18 13:50:22;;;;;;;;;;;;;;;;;;6242134;22;19942;-82
2022/09/18 13:52:48;;;;;;;;;;;;;;;;;;6266711;22;19985;-81
2022/09/18 13:55:17;;;;;;;;;;;;;;;;;;6270515;22;19919;-81
2022/09/18 13:57:52;;;;;;;;;;;;;;;;;;6290141;22;19930;-81
2022/09/18 14:03:26;;;;;;;;;;;;;;;;;;6295964;22;19919;-82
2022/09/18 14:05:52;;;;;;;;;;;;;;;;;;6267554;22;19942;-82
2022/09/18 14:08:40;;;;;;;;;;;;;;;;;;;;;
2022/09/18 14:14:27;;;;;;;;;;;;;;;;;;6335123;22;20350;-82
2022/09/18 14:19:51;;;;;;;;;;;;;;;;;;6291437;22;19953;-83
2022/09/18 14:22:39;;;;;;;;;;;;;;;;;;6204699;23;20245;-83
2022/09/18 14:28:06;;;;;;;;;;;;;;;;;;6196064;23;19925;-86
2022/09/18 14:30:42;;;;;;;;;;;;;;;;;;;;;
2022/09/18 14:36:51;;;;;;;;;;;;;;;;;;6175631;22;20912;-86
2022/09/18 14:39:22;;;;;;;;;;;;;;;;;;6258952;22;19923;-86
2022/09/18 14:42:12;;;;;;;;;;;;;;;;;;6254413;22;19927;-86
2022/09/18 14:44:43;;;;;;;;;;;;;;;;;;6231782;22;19919;-86
2022/09/18 14:47:11;;;;;;;;;;;;;;;;;;6209071;22;19915;-86
2022/09/18 14:49:38;;;;;;;;;;;;;;;;;;6206760;22;19919;-86
2022/09/18 14:52:08;;;;;;;;;;;;;;;;;;6205956;22;20252;-86
2022/09/18 14:54:57;;;;;;;;;;;;;;;;;;6237277;22;19997;-86
2022/09/18 14:57:25;;;;;;;;;;;;;;;;;;6208533;22;20386;-86
2022/09/18 14:59:52;;;;;;;;;;;;;;;;;;6207959;22;19998;-86
2022/09/18 15:02:29;;;;;;;;;;;;;;;;;;6209545;22;19919;-86
2022/09/18 15:04:55;;;;;;;;;;;;;;;;;;6231061;22;20078;-86
2022/09/18 15:07:45;;;;;;;;;;;;;;;;;;6244208;22;20244;-86
2022/09/18 15:10:11;;;;;;;;;;;;;;;;;;6205308;22;19970;-86
2022/09/18 15:12:39;;;;;;;;;;;;;;;;;;6201735;22;19918;-86
2022/09/18 15:15:17;;;;;;;;;;;;;;;;;;6181716;22;19919;-86
2022/09/18 15:17:44;;;;;;;;;;;;;;;;;;6205021;22;19990;-86
2022/09/18 15:20:10;;;;;;;;;;;;;;;;;;6208925;22;19927;-86
2022/09/18 15:22:36;;;;;;;;;;;;;;;;;;6178790;23;20008;-85
2022/09/18 15:25:23;;;;;;;;;;;;;;;;;;6162694;23;20018;-86
2022/09/18 15:27:51;;;;;;;;;;;;;;;;;;6110999;23;20424;-86
2022/09/18 15:30:22;;;;;;;;;;;;;;;;;;6162531;23;19923;-86
2022/09/18 15:32:49;;;;;;;;;;;;;;;;;;6123934;23;19942;-88
2022/09/18 15:35:16;;;;;;;;;;;;;;;;;;6167858;23;19928;-86
2022/09/18 15:37:43;;;;;;;;;;;;;;;;;;6167114;23;19924;-86
2022/09/18 15:40:10;;;;;;;;;;;;;;;;;;6144645;23;19994;-87
2022/09/18 15:42:36;;;;;;;;;;;;;;;;;;6165021;23;20017;-87
2022/09/18 15:56:47;;;;;;;;;;;;;;;;;;6282495;22;20304;-82
2022/09/18 16:04:52;;;;;;;;;;;;;;;;;;6225855;22;20478;-86
2022/09/18 16:07:22;;;;;;;;;;;;;;;;;;6175642;23;19949;-85
2022/09/18 16:10:03;;;;;;;;;;;;;;;;;;6140106;23;19916;-85
2022/09/18 16:12:31;;;;;;;;;;;;;;;;;;6115659;23;19920;-86
2022/09/18 16:15:02;;;;;;;;;;;;;;;;;;6138773;23;20109;-85
2022/09/18 16:17:28;;;;;;;;;;;;;;;;;;6112522;23;20015;-86
2022/09/18 16:19:57;;;;;;;;;;;;;;;;;;6132049;23;19920;-86
2022/09/18 16:22:32;;;;;;;;;;;;;;;;;;6159886;23;19920;-86
2022/09/18 16:25:00;;;;;;;;;;;;;;;;;;6110829;23;19963;-85
2022/09/18 16:27:36;;;;;;;;;;;;;;;;;;6138234;23;19926;-86
2022/09/18 16:30:14;;;;;;;;;;;;;;;;;;6116407;23;19927;-87
2022/09/18 16:32:40;;;;;;;;;;;;;;;;;;6111411;23;19920;-86
2022/09/18 16:35:06;;;;;;;;;;;;;;;;;;6136500;23;19936;-86
2022/09/18 16:37:40;;;;;;;;;;;;;;;;;;6138297;23;20086;-86
2022/09/18 16:40:09;;;;;;;;;;;;;;;;;;6122259;23;20007;-87
2022/09/18 16:42:40;;;;;;;;;;;;;;;;;;6221962;23;20457;-86
2022/09/18 16:45:08;;;;;;;;;;;;;;;;;;6227048;23;19915;-86
2022/09/18 16:47:47;;;;;;;;;;;;;;;;;;6222787;23;20293;-86
2022/09/18 16:50:25;;;;;;;;;;;;;;;;;;6198756;23;19924;-87
2022/09/18 16:53:02;;;;;;;;;;;;;;;;;;6224426;22;20347;-86
2022/09/18 16:55:28;;;;;;;;;;;;;;;;;;6174342;23;19920;-87
2022/09/18 16:57:54;;;;;;;;;;;;;;;;;;6174940;23;19923;-86
2022/09/18 17:00:30;;;;;;;;;;;;;;;;;;6220384;23;19919;-86
2022/09/18 17:02:59;;;;;;;;;;;;;;;;;;6194080;23;19927;-86
2022/09/18 17:05:27;;;;;;;;;;;;;;;;;;6223771;23;19943;-86
2022/09/18 17:07:57;;;;;;;;;;;;;;;;;;6217968;23;20385;-85
2022/09/18 17:10:25;;;;;;;;;;;;;;;;;;6197314;23;20751;-86
2022/09/18 17:12:58;;;;;;;;;;;;;;;;;;6193829;23;20380;-86
2022/09/18 17:15:24;;;;;;;;;;;;;;;;;;6220431;23;19922;-86
2022/09/18 17:17:52;;;;;;;;;;;;;;;;;;6194513;23;20332;-86
2022/09/18 17:20:18;;;;;;;;;;;;;;;;;;6198003;23;19919;-86
2022/09/18 17:22:46;;;;;;;;;;;;;;;;;;6188899;23;19920;-86
2022/09/18 17:25:13;;;;;;;;;;;;;;;;;;6196172;23;19919;-86
2022/09/18 17:27:44;;;;;;;;;;;;;;;;;;6217396;23;19919;-86
2022/09/18 17:30:10;;;;;;;;;;;;;;;;;;6165226;23;19935;-86
2022/09/18 17:32:37;;;;;;;;;;;;;;;;;;6161691;23;20331;-86
2022/09/18 17:35:03;;;;;;;;;;;;;;;;;;6139923;23;20220;-86
2022/09/18 17:37:29;;;;;;;;;;;;;;;;;;6164427;23;19923;-85
2022/09/18 17:40:01;;;;;;;;;;;;;;;;;;6134393;23;19919;-85
2022/09/18 17:42:28;;;;;;;;;;;;;;;;;;6138882;23;19916;-86
2022/09/18 17:44:55;;;;;;;;;;;;;;;;;;6133636;23;19920;-85